• NOTAM LFRU

    Aucun NOTAM











  • PHOTOS SATELLITE

CARTE TEMSI

CARTE WINTEM

  • Vent au sol

  • Vent à 2000ft

  • ANIMATION RADAR

  • METAR/TAF LFRU (MORLAIX / Ploujean)

    Aucun METAR

    METAR/TAF LFRB (BREST / Guipavas)

    LFRB 230530Z AUTO 31005KT CAVOK 12/12 Q1007 TEMPO 4000 SHRA BKN020TCU

    TAF AMD LFRB 230317Z 2303/2406 36005KT 9999 BKN010 TEMPO 2303/2305 3000 RADZ OVC003 BECMG 2303/2305 30010KT BECMG 2305/2307 BKN020 TEMPO 2309/2406 4000 SHRA BKN020TCU PROB40 TEMPO 2313/2322 26015G30KT 3000 SHRA BKN020CB BECMG 2402/2404 VRB05KT

    METAR/TAF LFRO (LANNION / Servel)

    Aucun METAR

RESERVATION

  • COMM' FFA

    FLASH SV : L'été arrive et les grandes chaleurs aussi !!!